Curry, Indiana
Current Conditions -  °F | °C
As of 10:53 AM on Sunday 23 Nov 2014 (Local Time) from KHUF Reporting Station
Overcast Overcast  
Wind Chill: 53°   Ceiling: 2100
Heat Index: 53°   Visibility: 8mi
Dew Point: 46°   Wind: 16mph
Humidity: 77%   Direction: 170°S
Pressure: 29.79"   Gusts: NA
Location:  39.2094°N, 87.3438°W
Report Text: KHUF 231553Z 17014KT 8SM OVC021 12/08 A2979 RMK AO2 SLP087 T01170078
Loading
Personal Weather Stations






























Interactive Weather Map New forecast layout! Learn more

10-Day Weather Forecast

Advertisements
Track Severe Weather on mobile